createdAt,value
2018-12-09T00:00:08.658Z,10.93
2018-12-09T00:01:08.650Z,10.90
2018-12-09T00:02:08.650Z,10.97
2018-12-09T00:03:08.639Z,10.86
2018-12-09T00:04:08.632Z,10.96
2018-12-09T00:05:08.626Z,10.96
2018-12-09T00:06:08.621Z,10.89
2018-12-09T00:07:08.617Z,10.90
2018-12-09T00:08:08.610Z,10.84
2018-12-09T00:09:08.606Z,11.02
2018-12-09T00:10:08.607Z,10.87
2018-12-09T00:11:08.590Z,10.90
2018-12-09T00:12:08.583Z,10.87
2018-12-09T00:13:08.610Z,10.92
2018-12-09T00:14:08.570Z,10.92
2018-12-09T00:15:08.564Z,10.90
2018-12-09T00:16:08.558Z,10.96
2018-12-09T00:17:09.869Z,10.96
2018-12-09T00:18:08.548Z,10.81
2018-12-09T00:19:08.540Z,10.96
2018-12-09T00:20:08.531Z,10.90
2018-12-09T00:21:08.529Z,10.82
2018-12-09T00:22:08.523Z,10.84
2018-12-09T00:23:08.515Z,10.81
2018-12-09T00:24:08.508Z,10.76
2018-12-09T00:25:08.504Z,10.82
2018-12-09T00:26:08.497Z,10.84
2018-12-09T00:27:08.489Z,10.82
2018-12-09T00:28:08.485Z,10.84
2018-12-09T00:29:08.483Z,10.87
2018-12-09T00:30:08.470Z,10.78
2018-12-09T00:31:08.467Z,10.78
2018-12-09T00:32:08.457Z,10.74
2018-12-09T00:33:08.453Z,10.81
2018-12-09T00:34:08.448Z,10.79
2018-12-09T00:35:08.439Z,10.74
2018-12-09T00:36:09.302Z,10.87
2018-12-09T00:37:08.426Z,10.78
2018-12-09T00:38:08.420Z,10.76
2018-12-09T00:39:08.413Z,10.75
2018-12-09T00:40:08.414Z,10.78
2018-12-09T00:41:08.402Z,10.75
2018-12-09T00:42:08.396Z,10.81
2018-12-09T00:43:08.391Z,10.71
2018-12-09T00:44:08.381Z,10.82
2018-12-09T00:45:08.373Z,10.84
2018-12-09T00:46:08.370Z,10.82
2018-12-09T00:47:08.518Z,10.86
2018-12-09T00:48:08.600Z,10.89
2018-12-09T00:49:08.352Z,10.79
2018-12-09T00:50:09.349Z,10.84
2018-12-09T00:51:08.521Z,10.90
2018-12-09T00:52:09.332Z,10.86
2018-12-09T00:53:09.400Z,10.79
2018-12-09T00:54:08.327Z,10.86
2018-12-09T00:55:08.492Z,10.92
2018-12-09T00:56:08.679Z,10.89
2018-12-09T00:57:09.891Z,10.87
2018-12-09T00:58:08.549Z,10.89
2018-12-09T00:59:08.288Z,10.94
2018-12-09T01:00:08.281Z,10.94
2018-12-09T01:01:08.278Z,10.94
2018-12-09T01:02:08.599Z,10.97
2018-12-09T01:03:08.272Z,10.96
2018-12-09T01:04:08.352Z,11.04
2018-12-09T01:05:08.546Z,10.90
2018-12-09T01:06:08.417Z,10.99
2018-12-09T01:07:08.281Z,11.00
2018-12-09T01:08:08.467Z,10.94
2018-12-09T01:09:08.411Z,11.02
2018-12-09T01:10:08.472Z,11.04
2018-12-09T01:11:08.365Z,11.02
2018-12-09T01:12:09.453Z,10.97
2018-12-09T01:13:09.393Z,11.02
2018-12-09T01:14:08.481Z,11.00
2018-12-09T01:15:08.457Z,11.00
2018-12-09T01:16:08.551Z,11.00
2018-12-09T01:17:08.573Z,10.97
2018-12-09T01:18:09.518Z,10.99
2018-12-09T01:19:08.179Z,11.00
2018-12-09T01:20:08.531Z,10.99
2018-12-09T01:21:08.539Z,11.02
2018-12-09T01:22:09.504Z,10.92
2018-12-09T01:23:08.141Z,11.00
2018-12-09T01:24:08.130Z,10.93
2018-12-09T01:25:08.124Z,10.94
2018-12-09T01:26:08.141Z,10.92
2018-12-09T01:27:08.110Z,10.93
2018-12-09T01:28:08.105Z,10.92
2018-12-09T01:29:08.099Z,10.93
2018-12-09T01:30:08.093Z,10.82
2018-12-09T01:31:08.089Z,10.96
2018-12-09T01:32:08.080Z,10.90
2018-12-09T01:33:08.075Z,10.93
2018-12-09T01:34:08.071Z,10.97
2018-12-09T01:35:08.066Z,10.87
2018-12-09T01:36:08.057Z,10.93
2018-12-09T01:37:08.059Z,10.94
2018-12-09T01:38:08.046Z,10.89
2018-12-09T01:39:08.038Z,10.94
2018-12-09T01:40:08.030Z,11.04
2018-12-09T01:41:08.023Z,10.89
2018-12-09T01:42:08.018Z,10.97
2018-12-09T01:43:08.013Z,10.97
2018-12-09T01:44:08.004Z,10.92
2018-12-09T01:45:08.000Z,10.93
2018-12-09T01:46:07.993Z,10.92
2018-12-09T01:47:07.986Z,10.90
2018-12-09T01:48:07.980Z,10.94
2018-12-09T01:49:07.973Z,10.90
2018-12-09T01:50:07.968Z,10.87
2018-12-09T01:51:07.962Z,10.94
2018-12-09T01:52:08.022Z,10.90
2018-12-09T01:53:07.949Z,10.90
2018-12-09T01:54:07.943Z,10.93
2018-12-09T01:55:07.938Z,10.90
2018-12-09T01:56:07.928Z,10.94
2018-12-09T01:57:07.925Z,10.87
2018-12-09T01:58:07.917Z,10.89
2018-12-09T01:59:07.912Z,10.92
2018-12-09T02:00:07.907Z,10.87
2018-12-09T02:01:07.898Z,10.84
2018-12-09T02:02:07.895Z,10.89
2018-12-09T02:03:07.886Z,10.93
2018-12-09T02:04:07.886Z,10.90
2018-12-09T02:05:07.875Z,10.93
2018-12-09T02:06:07.867Z,10.87
2018-12-09T02:07:07.886Z,10.92
2018-12-09T02:08:07.856Z,10.81
2018-12-09T02:09:07.849Z,10.89
2018-12-09T02:10:07.845Z,10.92
2018-12-09T02:11:07.838Z,10.87
2018-12-09T02:12:07.934Z,10.89
2018-12-09T02:13:07.825Z,10.86
2018-12-09T02:14:07.823Z,10.82
2018-12-09T02:15:07.820Z,10.99
2018-12-09T02:16:07.804Z,11.00
2018-12-09T02:17:07.799Z,10.96
2018-12-09T02:18:07.797Z,11.00
2018-12-09T02:19:07.786Z,11.02
2018-12-09T02:20:07.788Z,11.02
2018-12-09T02:21:07.773Z,11.10
2018-12-09T02:22:07.819Z,11.02
2018-12-09T02:23:07.762Z,11.05
2018-12-09T02:24:07.757Z,11.10
2018-12-09T02:25:07.755Z,11.07
2018-12-09T02:26:07.746Z,11.05
2018-12-09T02:27:07.737Z,11.11
2018-12-09T02:28:07.732Z,11.07
2018-12-09T02:29:07.724Z,11.11
2018-12-09T02:30:07.721Z,11.14
2018-12-09T02:31:07.715Z,11.12
2018-12-09T02:32:07.710Z,11.12
2018-12-09T02:33:07.701Z,11.04
2018-12-09T02:34:07.698Z,11.18
2018-12-09T02:35:07.691Z,11.22
2018-12-09T02:36:07.686Z,11.25
2018-12-09T02:37:07.678Z,11.15
2018-12-09T02:38:07.670Z,11.25
2018-12-09T02:39:07.667Z,11.22
2018-12-09T02:40:07.660Z,11.27
2018-12-09T02:41:07.654Z,11.25
2018-12-09T02:42:07.647Z,11.25
2018-12-09T02:43:07.647Z,11.27
2018-12-09T02:44:07.634Z,11.22
2018-12-09T02:45:07.629Z,11.18
2018-12-09T02:46:07.625Z,11.25
2018-12-09T02:47:07.618Z,11.22
2018-12-09T02:48:07.618Z,11.19
2018-12-09T02:49:07.610Z,11.23
2018-12-09T02:50:07.601Z,11.18
2018-12-09T02:51:07.597Z,11.27
2018-12-09T02:52:07.613Z,11.30
2018-12-09T02:53:07.590Z,11.29
2018-12-09T02:54:07.580Z,11.32
2018-12-09T02:55:07.573Z,11.32
2018-12-09T02:56:07.566Z,11.35
2018-12-09T02:57:07.567Z,11.30
2018-12-09T02:58:07.552Z,11.32
2018-12-09T02:59:07.559Z,11.47
2018-12-09T03:00:07.542Z,11.41
2018-12-09T03:01:07.535Z,11.47
2018-12-09T03:02:07.532Z,11.33
2018-12-09T03:03:07.527Z,11.44
2018-12-09T03:04:07.521Z,11.45
2018-12-09T03:05:07.512Z,11.48
2018-12-09T03:06:07.515Z,11.36
2018-12-09T03:07:07.501Z,11.45
2018-12-09T03:08:07.496Z,11.33
2018-12-09T03:09:07.515Z,11.37
2018-12-09T03:10:07.484Z,11.36
2018-12-09T03:11:07.480Z,11.30
2018-12-09T03:12:07.475Z,11.19
2018-12-09T03:13:08.214Z,11.22
2018-12-09T03:14:08.515Z,11.05
2018-12-09T03:15:08.332Z,11.14
2018-12-09T03:16:07.456Z,11.05
2018-12-09T03:17:07.464Z,10.94
2018-12-09T03:18:07.441Z,10.86
2018-12-09T03:19:07.504Z,10.90
2018-12-09T03:20:07.482Z,10.89
2018-12-09T03:21:07.793Z,10.87
2018-12-09T03:22:07.510Z,10.86
2018-12-09T03:23:07.407Z,10.86
2018-12-09T03:24:07.398Z,10.86
2018-12-09T03:25:07.395Z,10.82
2018-12-09T03:26:07.388Z,10.76
2018-12-09T03:27:07.384Z,10.89
2018-12-09T03:28:07.376Z,10.78
2018-12-09T03:29:07.369Z,10.82
2018-12-09T03:30:07.364Z,10.84
2018-12-09T03:31:07.360Z,10.84
2018-12-09T03:32:07.365Z,10.84
2018-12-09T03:33:08.417Z,10.86
2018-12-09T03:34:08.365Z,10.79
2018-12-09T03:35:07.333Z,10.78
2018-12-09T03:36:07.323Z,10.78
2018-12-09T03:37:07.319Z,10.84
2018-12-09T03:38:07.314Z,10.81
2018-12-09T03:39:07.306Z,10.79
2018-12-09T03:40:07.302Z,10.78
2018-12-09T03:41:07.294Z,10.84
2018-12-09T03:42:07.301Z,10.78
2018-12-09T03:43:07.282Z,10.78
2018-12-09T03:44:07.275Z,10.81
2018-12-09T03:45:07.267Z,10.84
2018-12-09T03:46:07.262Z,10.84
2018-12-09T03:47:07.259Z,10.90
2018-12-09T03:48:07.250Z,10.84
2018-12-09T03:49:07.247Z,10.82
2018-12-09T03:50:07.240Z,10.86
2018-12-09T03:51:07.232Z,10.82
2018-12-09T03:52:07.305Z,10.86
2018-12-09T03:53:07.221Z,10.81
2018-12-09T03:54:07.216Z,10.79
2018-12-09T03:55:07.209Z,10.89
2018-12-09T03:56:07.205Z,10.92
2018-12-09T03:57:07.194Z,10.86
2018-12-09T03:58:07.189Z,10.86
2018-12-09T03:59:07.184Z,10.87
2018-12-09T04:00:07.175Z,10.86
2018-12-09T04:01:07.169Z,10.82
2018-12-09T04:02:07.165Z,10.78
2018-12-09T04:03:07.157Z,10.81
2018-12-09T04:04:07.151Z,10.72
2018-12-09T04:05:07.144Z,10.78
2018-12-09T04:06:07.139Z,10.75
2018-12-09T04:07:07.132Z,10.76
2018-12-09T04:08:07.126Z,10.79
2018-12-09T04:09:07.120Z,10.84
2018-12-09T04:10:07.123Z,10.75
2018-12-09T04:11:07.107Z,10.74
2018-12-09T04:12:07.101Z,10.76
2018-12-09T04:13:07.094Z,10.68
2018-12-09T04:14:07.087Z,10.64
2018-12-09T04:15:07.085Z,10.74
2018-12-09T04:16:07.080Z,10.75
2018-12-09T04:17:07.073Z,10.69
2018-12-09T04:18:34.908Z,10.67
2018-12-09T04:19:07.062Z,10.67
2018-12-09T04:20:07.051Z,10.64
2018-12-09T04:21:07.047Z,10.54
2018-12-09T04:22:07.038Z,10.56
2018-12-09T04:23:07.034Z,10.51
2018-12-09T04:24:07.026Z,10.37
2018-12-09T04:25:07.020Z,10.46
2018-12-09T04:26:07.021Z,10.42
2018-12-09T04:27:07.007Z,10.35
2018-12-09T04:28:07.003Z,10.33
2018-12-09T04:29:07.003Z,10.42
2018-12-09T04:30:06.988Z,10.37
2018-12-09T04:31:06.982Z,10.30
2018-12-09T04:32:06.976Z,10.23
2018-12-09T04:33:06.969Z,10.31
2018-12-09T04:34:06.963Z,10.31
2018-12-09T04:35:06.956Z,10.25
2018-12-09T04:36:06.951Z,10.26
2018-12-09T04:37:06.942Z,10.25
2018-12-09T04:38:06.938Z,10.22
2018-12-09T04:39:06.930Z,10.28
2018-12-09T04:40:08.773Z,10.26
2018-12-09T04:41:06.918Z,10.23
2018-12-09T04:42:06.914Z,10.23
2018-12-09T04:43:06.905Z,10.19
2018-12-09T04:44:06.904Z,10.19
2018-12-09T04:45:06.890Z,10.20
2018-12-09T04:46:06.887Z,10.20
2018-12-09T04:47:06.878Z,10.17
2018-12-09T04:48:06.872Z,10.20
2018-12-09T04:49:06.867Z,10.19
2018-12-09T04:50:06.859Z,10.20
2018-12-09T04:51:06.855Z,10.19
2018-12-09T04:52:06.848Z,10.19
2018-12-09T04:53:06.841Z,10.17
2018-12-09T04:54:06.834Z,10.13
2018-12-09T04:55:06.826Z,10.15
2018-12-09T04:56:06.818Z,10.16
2018-12-09T04:57:06.821Z,10.22
2018-12-09T04:58:06.809Z,10.04
2018-12-09T04:59:06.802Z,10.17
2018-12-09T05:00:06.793Z,10.15
2018-12-09T05:01:06.817Z,10.19
2018-12-09T05:02:06.785Z,10.17
2018-12-09T05:03:06.771Z,10.26
2018-12-09T05:04:06.774Z,10.20
2018-12-09T05:05:06.765Z,10.22
2018-12-09T05:06:06.754Z,10.22
2018-12-09T05:07:06.749Z,10.20
2018-12-09T05:08:06.746Z,10.17
2018-12-09T05:09:06.735Z,10.23
2018-12-09T05:10:06.725Z,10.23
2018-12-09T05:11:06.721Z,10.23
2018-12-09T05:12:06.718Z,10.28
2018-12-09T05:13:06.709Z,10.20
2018-12-09T05:14:06.702Z,10.20
2018-12-09T05:15:06.694Z,10.17
2018-12-09T05:16:06.688Z,10.19
2018-12-09T05:17:06.683Z,10.17
2018-12-09T05:18:06.674Z,10.23
2018-12-09T05:19:06.669Z,10.20
2018-12-09T05:20:06.662Z,10.20
2018-12-09T05:21:06.656Z,10.16
2018-12-09T05:22:06.649Z,10.19
2018-12-09T05:23:06.642Z,10.25
2018-12-09T05:24:06.636Z,10.22
2018-12-09T05:25:06.629Z,10.19
2018-12-09T05:26:06.624Z,10.31
2018-12-09T05:27:06.617Z,10.22
2018-12-09T05:28:06.619Z,10.16
2018-12-09T05:29:06.603Z,10.26
2018-12-09T05:30:06.596Z,10.30
2018-12-09T05:31:06.589Z,10.23
2018-12-09T05:32:06.582Z,10.25
2018-12-09T05:33:06.578Z,10.16
2018-12-09T05:34:06.576Z,10.23
2018-12-09T05:35:06.568Z,10.20
2018-12-09T05:36:06.558Z,10.25
2018-12-09T05:37:06.551Z,10.17
2018-12-09T05:38:06.546Z,10.30
2018-12-09T05:39:06.540Z,10.33
2018-12-09T05:40:06.532Z,10.34
2018-12-09T05:41:06.527Z,10.33
2018-12-09T05:42:06.527Z,10.26
2018-12-09T05:43:06.513Z,10.26
2018-12-09T05:44:06.514Z,10.33
2018-12-09T05:45:06.500Z,10.31
2018-12-09T05:46:08.427Z,10.26
2018-12-09T05:47:06.488Z,10.30
2018-12-09T05:48:06.483Z,10.33
2018-12-09T05:49:06.476Z,10.26
2018-12-09T05:50:06.469Z,10.28
2018-12-09T05:51:06.460Z,10.26
2018-12-09T05:52:06.456Z,10.26
2018-12-09T05:53:06.450Z,10.30
2018-12-09T05:54:06.442Z,10.28
2018-12-09T05:55:06.436Z,10.30
2018-12-09T05:56:06.432Z,10.30
2018-12-09T05:57:06.422Z,10.30
2018-12-09T05:58:06.415Z,10.35
2018-12-09T05:59:06.518Z,10.33
2018-12-09T06:00:06.403Z,10.31
2018-12-09T06:01:06.397Z,10.33
2018-12-09T06:02:06.391Z,10.26
2018-12-09T06:03:06.385Z,10.31
2018-12-09T06:04:06.375Z,10.34
2018-12-09T06:05:06.371Z,10.30
2018-12-09T06:06:06.363Z,10.31
2018-12-09T06:07:06.357Z,10.31
2018-12-09T06:08:06.349Z,10.30
2018-12-09T06:09:06.342Z,10.23
2018-12-09T06:10:06.339Z,10.22
2018-12-09T06:11:06.334Z,10.33
2018-12-09T06:12:06.324Z,10.25
2018-12-09T06:13:06.323Z,10.23
2018-12-09T06:14:06.316Z,10.22
2018-12-09T06:15:06.308Z,10.19
2018-12-09T06:16:06.298Z,10.23
2018-12-09T06:17:06.291Z,10.22
2018-12-09T06:18:06.283Z,10.19
2018-12-09T06:19:06.276Z,10.17
2018-12-09T06:20:06.270Z,10.19
2018-12-09T06:21:06.264Z,10.09
2018-12-09T06:22:06.258Z,10.07
2018-12-09T06:23:06.253Z,10.09
2018-12-09T06:24:06.246Z,10.04
2018-12-09T06:25:06.238Z,10.09
2018-12-09T06:26:06.231Z,10.13
2018-12-09T06:27:06.225Z,10.09
2018-12-09T06:28:06.216Z,10.09
2018-12-09T06:29:06.210Z,10.04
2018-12-09T06:30:06.205Z,10.10
2018-12-09T06:31:06.197Z,10.07
2018-12-09T06:32:06.190Z,10.07
2018-12-09T06:33:06.183Z,10.07
2018-12-09T06:34:06.179Z,10.02
2018-12-09T06:35:06.170Z,10.05
2018-12-09T06:36:06.161Z,10.01
2018-12-09T06:37:06.157Z,10.07
2018-12-09T06:38:06.150Z,10.05
2018-12-09T06:39:06.146Z,10.13
2018-12-09T06:40:06.137Z,10.05
2018-12-09T06:41:06.128Z,10.15
2018-12-09T06:42:06.126Z,10.10
2018-12-09T06:43:06.116Z,10.16
2018-12-09T06:44:06.109Z,10.10
2018-12-09T06:45:06.106Z,10.22
2018-12-09T06:46:06.105Z,10.20
2018-12-09T06:47:06.090Z,10.20
2018-12-09T06:48:06.081Z,10.17
2018-12-09T06:49:06.075Z,10.17
2018-12-09T06:50:06.070Z,10.15
2018-12-09T06:51:06.064Z,10.19
2018-12-09T06:52:06.055Z,10.17
2018-12-09T06:53:06.051Z,10.12
2018-12-09T06:54:06.044Z,10.15
2018-12-09T06:55:06.037Z,10.19
2018-12-09T06:56:06.029Z,10.07
2018-12-09T06:57:06.022Z,10.13
2018-12-09T06:58:06.025Z,10.12
2018-12-09T06:59:06.013Z,10.10
2018-12-09T07:00:06.001Z,10.02
2018-12-09T07:01:05.995Z,10.10
2018-12-09T07:02:05.988Z,10.09
2018-12-09T07:03:05.982Z,10.09
2018-12-09T07:04:05.978Z,10.12
2018-12-09T07:05:05.968Z,10.01
2018-12-09T07:06:05.962Z,10.09
2018-12-09T07:07:05.955Z,10.04
2018-12-09T07:08:05.950Z,10.07
2018-12-09T07:09:05.939Z,10.12
2018-12-09T07:10:05.937Z,10.02
2018-12-09T07:11:05.934Z,10.19
2018-12-09T07:12:05.921Z,10.16
2018-12-09T07:13:05.917Z,10.19
2018-12-09T07:14:05.918Z,10.19
2018-12-09T07:15:05.902Z,10.25
2018-12-09T07:16:05.896Z,10.22
2018-12-09T07:17:05.886Z,10.17
2018-12-09T07:18:05.880Z,10.23
2018-12-09T07:19:05.873Z,10.20
2018-12-09T07:20:05.868Z,10.20
2018-12-09T07:21:05.860Z,10.19
2018-12-09T07:22:05.853Z,10.17
2018-12-09T07:23:05.844Z,10.22
2018-12-09T07:24:05.837Z,10.13
2018-12-09T07:25:05.839Z,10.30
2018-12-09T07:26:05.827Z,10.19
2018-12-09T07:27:05.819Z,10.23
2018-12-09T07:28:05.815Z,10.25
2018-12-09T07:29:05.868Z,10.20
2018-12-09T07:30:05.799Z,10.20
2018-12-09T07:31:05.792Z,10.31
2018-12-09T07:32:05.868Z,10.28
2018-12-09T07:33:05.780Z,10.34
2018-12-09T07:34:05.777Z,10.28
2018-12-09T07:35:05.766Z,10.33
2018-12-09T07:36:05.759Z,10.30
2018-12-09T07:37:05.752Z,10.34
2018-12-09T07:38:05.743Z,10.33
2018-12-09T07:39:05.738Z,10.28
2018-12-09T07:40:05.731Z,10.33
2018-12-09T07:41:05.726Z,10.33
2018-12-09T07:42:05.725Z,10.42
2018-12-09T07:43:05.712Z,10.34
2018-12-09T07:44:05.706Z,10.35
2018-12-09T07:45:05.699Z,10.41
2018-12-09T07:46:05.691Z,10.40
2018-12-09T07:47:05.686Z,10.46
2018-12-09T07:48:05.683Z,10.44
2018-12-09T07:49:05.673Z,10.49
2018-12-09T07:50:05.665Z,10.46
2018-12-09T07:51:05.663Z,10.46
2018-12-09T07:52:05.654Z,10.41
2018-12-09T07:53:05.648Z,10.48
2018-12-09T07:54:05.639Z,10.53
2018-12-09T07:55:05.632Z,10.59
2018-12-09T07:56:05.626Z,10.54
2018-12-09T07:57:05.620Z,10.57
2018-12-09T07:58:05.613Z,10.60
2018-12-09T07:59:05.607Z,10.57
2018-12-09T08:00:05.603Z,10.61
2018-12-09T08:01:05.592Z,10.63
2018-12-09T08:02:05.588Z,10.67
2018-12-09T08:03:06.142Z,10.56
2018-12-09T08:04:05.575Z,10.59
2018-12-09T08:05:05.571Z,10.60
2018-12-09T08:06:05.565Z,10.57
2018-12-09T08:07:05.557Z,10.61
2018-12-09T08:08:05.550Z,10.61
2018-12-09T08:09:05.546Z,10.56
2018-12-09T08:10:05.545Z,10.60
2018-12-09T08:11:05.532Z,10.54
2018-12-09T08:12:05.527Z,10.60
2018-12-09T08:13:05.516Z,10.48
2018-12-09T08:14:05.510Z,10.56
2018-12-09T08:15:05.505Z,10.57
2018-12-09T08:16:05.498Z,10.61
2018-12-09T08:17:05.492Z,10.67
2018-12-09T08:18:05.486Z,10.60
2018-12-09T08:19:05.486Z,10.68
2018-12-09T08:20:05.475Z,10.67
2018-12-09T08:21:05.467Z,10.71
2018-12-09T08:22:05.459Z,10.63
2018-12-09T08:23:05.454Z,10.69
2018-12-09T08:24:05.446Z,10.63
2018-12-09T08:25:05.437Z,10.72
2018-12-09T08:26:05.432Z,10.71
2018-12-09T08:27:05.439Z,10.64
2018-12-09T08:28:05.425Z,10.72
2018-12-09T08:29:05.432Z,10.72
2018-12-09T08:30:05.408Z,10.76
2018-12-09T08:31:05.427Z,10.78
2018-12-09T08:32:05.393Z,10.78
2018-12-09T08:33:05.389Z,10.71
2018-12-09T08:34:05.401Z,10.76
2018-12-09T08:35:05.377Z,10.74
2018-12-09T08:36:07.005Z,10.84
2018-12-09T08:37:05.359Z,10.78
2018-12-09T08:38:05.353Z,10.86
2018-12-09T08:39:05.350Z,10.94
2018-12-09T08:40:05.347Z,10.87
2018-12-09T08:41:05.336Z,10.92
2018-12-09T08:42:05.328Z,10.96
2018-12-09T08:43:05.324Z,10.87
2018-12-09T08:44:05.315Z,10.97
2018-12-09T08:45:05.310Z,10.90
2018-12-09T08:46:05.303Z,10.89
2018-12-09T08:47:05.300Z,10.89
2018-12-09T08:48:05.290Z,10.94
2018-12-09T08:49:05.285Z,10.99
2018-12-09T08:50:05.280Z,11.02
2018-12-09T08:51:05.273Z,11.00
2018-12-09T08:52:05.266Z,11.05
2018-12-09T08:53:05.263Z,11.05
2018-12-09T08:54:05.253Z,11.08
2018-12-09T08:55:05.252Z,11.10
2018-12-09T08:56:05.242Z,11.15
2018-12-09T08:57:05.243Z,11.04
2018-12-09T08:58:05.230Z,11.04
2018-12-09T08:59:05.763Z,11.15
2018-12-09T09:00:05.219Z,11.19
2018-12-09T09:01:05.213Z,11.30
2018-12-09T09:02:05.206Z,11.19
2018-12-09T09:03:05.201Z,11.33
2018-12-09T09:04:05.196Z,11.25
2018-12-09T09:05:05.191Z,11.23
2018-12-09T09:06:05.180Z,11.25
2018-12-09T09:07:05.175Z,11.26
2018-12-09T09:08:05.174Z,11.36
2018-12-09T09:09:05.163Z,11.36
2018-12-09T09:10:05.159Z,11.30
2018-12-09T09:11:05.152Z,11.35
2018-12-09T09:12:05.149Z,11.30
2018-12-09T09:13:05.144Z,11.29
2018-12-09T09:14:05.137Z,11.36
2018-12-09T09:15:05.129Z,11.40
2018-12-09T09:16:05.131Z,11.44
2018-12-09T09:17:05.116Z,11.48
2018-12-09T09:18:05.113Z,11.47
2018-12-09T09:19:05.111Z,11.50
2018-12-09T09:20:05.100Z,11.51
2018-12-09T09:21:05.096Z,11.55
2018-12-09T09:22:05.088Z,11.60
2018-12-09T09:23:05.086Z,11.54
2018-12-09T09:24:05.076Z,11.57
2018-12-09T09:25:05.076Z,11.50
2018-12-09T09:26:05.069Z,11.60
2018-12-09T09:27:05.061Z,11.60
2018-12-09T09:28:05.057Z,11.60
2018-12-09T09:29:05.051Z,11.65
2018-12-09T09:30:05.045Z,11.57
2018-12-09T09:31:05.037Z,11.63
2018-12-09T09:32:05.031Z,11.60
2018-12-09T09:33:05.026Z,11.63
2018-12-09T09:34:05.021Z,11.68
2018-12-09T09:35:05.015Z,11.72
2018-12-09T09:36:05.011Z,11.65
2018-12-09T09:37:05.003Z,11.66
2018-12-09T09:38:05.000Z,11.69
2018-12-09T09:39:04.997Z,11.70
2018-12-09T09:40:04.989Z,11.70
2018-12-09T09:41:04.980Z,11.65
2018-12-09T09:42:04.977Z,11.65
2018-12-09T09:43:04.972Z,11.72
2018-12-09T09:44:04.965Z,11.65
2018-12-09T09:45:04.967Z,11.72
2018-12-09T09:46:04.955Z,11.69
2018-12-09T09:47:04.949Z,11.65
2018-12-09T09:48:04.945Z,11.65
2018-12-09T09:49:04.937Z,11.66
2018-12-09T09:50:04.933Z,11.69
2018-12-09T09:51:04.930Z,11.66
2018-12-09T09:52:04.926Z,11.70
2018-12-09T09:53:04.921Z,11.69
2018-12-09T09:54:04.920Z,11.69
2018-12-09T09:55:04.909Z,11.69
2018-12-09T09:56:04.900Z,11.69
2018-12-09T09:57:04.895Z,11.73
2018-12-09T09:58:04.888Z,11.75
2018-12-09T09:59:04.883Z,11.75
2018-12-09T10:00:04.880Z,11.80
2018-12-09T10:01:04.872Z,11.86
2018-12-09T10:02:04.868Z,11.84
2018-12-09T10:03:04.860Z,11.81
2018-12-09T10:04:04.855Z,11.77
2018-12-09T10:05:04.850Z,11.86
2018-12-09T10:06:04.846Z,11.87
2018-12-09T10:07:04.843Z,11.84
2018-12-09T10:08:04.834Z,11.84
2018-12-09T10:09:04.837Z,11.86
2018-12-09T10:10:04.822Z,11.81
2018-12-09T10:11:04.820Z,11.72
2018-12-09T10:12:04.814Z,11.73
2018-12-09T10:13:04.807Z,11.72
2018-12-09T10:14:04.801Z,11.73
2018-12-09T10:15:04.798Z,11.83
2018-12-09T10:16:04.792Z,11.75
2018-12-09T10:17:04.786Z,11.70
2018-12-09T10:18:04.781Z,11.78
2018-12-09T10:19:04.776Z,11.72
2018-12-09T10:20:04.771Z,11.77
2018-12-09T10:21:04.764Z,11.77
2018-12-09T10:22:04.762Z,11.72
2018-12-09T10:23:04.752Z,11.83
2018-12-09T10:24:04.752Z,11.81
2018-12-09T10:25:04.745Z,11.72
2018-12-09T10:26:04.736Z,11.77
2018-12-09T10:27:04.731Z,11.80
2018-12-09T10:28:04.725Z,11.75
2018-12-09T10:29:04.725Z,11.78
2018-12-09T10:30:04.715Z,11.77
2018-12-09T10:31:04.710Z,11.84
2018-12-09T10:32:04.705Z,11.84
2018-12-09T10:33:04.698Z,11.90
2018-12-09T10:34:04.697Z,11.86
2018-12-09T10:35:04.691Z,11.94
2018-12-09T10:36:04.742Z,11.84
2018-12-09T10:37:04.682Z,11.87
2018-12-09T10:38:04.689Z,11.87
2018-12-09T10:39:04.667Z,11.84
2018-12-09T10:40:04.663Z,11.87
2018-12-09T10:41:04.662Z,11.90
2018-12-09T10:42:04.651Z,11.87
2018-12-09T10:43:04.650Z,11.73
2018-12-09T10:44:04.641Z,11.81
2018-12-09T10:45:04.638Z,11.88
2018-12-09T10:46:04.630Z,11.81
2018-12-09T10:47:04.669Z,11.88
2018-12-09T10:48:04.620Z,11.78
2018-12-09T10:49:04.617Z,11.86
2018-12-09T10:50:04.610Z,11.80
2018-12-09T10:51:04.607Z,11.87
2018-12-09T10:52:04.613Z,11.84
2018-12-09T10:53:04.596Z,11.77
2018-12-09T10:54:04.588Z,11.77
2018-12-09T10:55:04.583Z,11.75
2018-12-09T10:56:04.581Z,11.80
2018-12-09T10:57:04.571Z,11.70
2018-12-09T10:58:04.567Z,11.78
2018-12-09T10:59:04.564Z,11.87
2018-12-09T11:00:04.557Z,11.75
2018-12-09T11:01:04.556Z,11.84
2018-12-09T11:02:04.547Z,11.87
2018-12-09T11:03:04.541Z,11.84
2018-12-09T11:04:04.534Z,11.90
2018-12-09T11:05:04.531Z,11.99
2018-12-09T11:06:04.550Z,11.83
2018-12-09T11:07:04.518Z,11.78
2018-12-09T11:08:04.514Z,11.87
2018-12-09T11:09:04.507Z,11.95
2018-12-09T11:10:04.502Z,11.99
2018-12-09T11:11:04.498Z,12.07
2018-12-09T11:12:04.500Z,12.06
2018-12-09T11:13:04.488Z,12.06
2018-12-09T11:14:04.484Z,12.03
2018-12-09T11:15:04.477Z,12.09
2018-12-09T11:16:05.254Z,12.09
2018-12-09T11:17:04.468Z,12.04
2018-12-09T11:18:04.464Z,12.00
2018-12-09T11:19:04.458Z,12.02
2018-12-09T11:20:04.451Z,12.03
2018-12-09T11:21:04.447Z,12.13
2018-12-09T11:22:04.440Z,12.07
2018-12-09T11:23:04.461Z,12.20
2018-12-09T11:24:04.431Z,12.17
2018-12-09T11:25:04.429Z,12.10
2018-12-09T11:26:04.419Z,12.21
2018-12-09T11:27:04.421Z,12.15
2018-12-09T11:28:04.410Z,12.18
2018-12-09T11:29:04.411Z,12.09
2018-12-09T11:30:04.399Z,12.12
2018-12-09T11:31:04.393Z,12.15
2018-12-09T11:32:04.399Z,12.09
2018-12-09T11:33:04.384Z,12.12
2018-12-09T11:34:04.379Z,12.18
2018-12-09T11:35:04.374Z,12.17
2018-12-09T11:36:04.376Z,12.20
2018-12-09T11:37:04.365Z,12.18
2018-12-09T11:38:04.357Z,12.18
2018-12-09T11:39:04.353Z,12.17
2018-12-09T11:40:04.349Z,12.20
2018-12-09T11:41:04.343Z,12.24
2018-12-09T11:42:04.339Z,12.15
2018-12-09T11:43:04.333Z,12.18
2018-12-09T11:44:04.327Z,12.24
2018-12-09T11:45:04.330Z,12.17
2018-12-09T11:46:04.319Z,12.28
2018-12-09T11:47:04.316Z,12.18
2018-12-09T11:48:04.310Z,12.22
2018-12-09T11:49:04.303Z,12.21
2018-12-09T11:50:04.297Z,12.21
2018-12-09T11:51:04.293Z,12.17
2018-12-09T11:52:04.291Z,12.18
2018-12-09T11:53:04.282Z,12.20
2018-12-09T11:54:04.281Z,12.20
2018-12-09T11:55:04.275Z,12.27
2018-12-09T11:56:04.270Z,12.22
2018-12-09T11:57:04.261Z,12.29
2018-12-09T11:58:04.257Z,12.22
2018-12-09T11:59:04.258Z,12.17
2018-12-09T12:00:04.247Z,12.21
2018-12-09T12:01:04.243Z,12.20
2018-12-09T12:02:04.240Z,12.15
2018-12-09T12:03:04.230Z,12.15
2018-12-09T12:04:04.224Z,12.20
2018-12-09T12:05:04.220Z,12.13
2018-12-09T12:06:04.215Z,12.18
2018-12-09T12:07:04.212Z,12.17
2018-12-09T12:08:04.216Z,12.13
2018-12-09T12:09:04.204Z,12.18
2018-12-09T12:10:04.200Z,12.18
2018-12-09T12:11:04.191Z,12.20
2018-12-09T12:12:04.185Z,12.24
2018-12-09T12:13:04.184Z,12.31
2018-12-09T12:14:04.176Z,12.40
2018-12-09T12:15:04.169Z,12.31
2018-12-09T12:16:04.196Z,12.29
2018-12-09T12:17:04.158Z,12.27
2018-12-09T12:18:04.158Z,12.32
2018-12-09T12:19:04.152Z,12.28
2018-12-09T12:20:04.144Z,12.21
2018-12-09T12:21:04.139Z,12.18
2018-12-09T12:22:04.136Z,12.20
2018-12-09T12:23:04.131Z,12.21
2018-12-09T12:24:04.124Z,12.20
2018-12-09T12:25:04.129Z,12.17
2018-12-09T12:26:04.121Z,12.21
2018-12-09T12:27:04.111Z,12.17
2018-12-09T12:28:04.241Z,12.04
2018-12-09T12:29:04.101Z,12.04
2018-12-09T12:30:04.097Z,12.10
2018-12-09T12:31:04.092Z,12.17
2018-12-09T12:32:04.086Z,12.09
2018-12-09T12:33:04.081Z,12.07
2018-12-09T12:34:04.080Z,12.06
2018-12-09T12:35:04.072Z,11.99
2018-12-09T12:36:04.065Z,12.03
2018-12-09T12:37:04.075Z,12.03
2018-12-09T12:38:04.054Z,12.02
2018-12-09T12:39:04.051Z,11.91
2018-12-09T12:40:04.044Z,12.02
2018-12-09T12:41:04.041Z,11.91
2018-12-09T12:42:04.037Z,11.88
2018-12-09T12:43:04.032Z,11.81
2018-12-09T12:44:04.025Z,11.91
2018-12-09T12:45:04.018Z,11.78
2018-12-09T12:46:04.013Z,11.77
2018-12-09T12:47:04.009Z,11.77
2018-12-09T12:48:04.004Z,11.73
2018-12-09T12:49:04.001Z,11.63
2018-12-09T12:50:03.994Z,11.60
2018-12-09T12:51:03.987Z,11.65
2018-12-09T12:52:03.981Z,11.60